Pickwick Observed Data For Previous 48 Hours

Caption
Day and Hour Reservoir Elevation (behind dam)* Tailwater Elevation (below dam)* Average Hourly Discharge*
3/22/2019 1 AM CDT 409.67 370.00 97,925
3/22/2019 2 AM CDT 409.72 369.91 98,535
3/22/2019 3 AM CDT 409.76 369.86 99,084
3/22/2019 4 AM CDT 409.80 369.82 99,573
3/22/2019 5 AM CDT 409.84 369.77 100,063
3/22/2019 6 AM CDT 409.87 369.74 100,492
3/22/2019 7 AM CDT 409.91 369.70 100,920
3/22/2019 8 AM CDT 409.94 369.67 101,352
3/22/2019 9 AM CDT 409.98 369.69 101,783
3/22/2019 10 AM CDT 410.00 369.65 102,153
3/22/2019 11 AM CDT 410.00 369.68 102,300
3/22/2019 12 PM CDT 410.02 369.63 102,400
3/22/2019 1 PM CDT 410.03 369.60 102,578
3/22/2019 2 PM CDT 409.98 369.56 102,343
3/22/2019 3 PM CDT 409.88 369.48 101,423
3/22/2019 4 PM CDT 409.83 369.48 100,500
3/22/2019 5 PM CDT 409.81 369.45 100,067
3/22/2019 6 PM CDT 409.82 369.33 99,998
3/22/2019 7 PM CDT 409.86 369.30 100,305
3/22/2019 8 PM CDT 409.86 369.26 100,600
3/22/2019 9 PM CDT 409.87 369.24 100,623
3/22/2019 10 PM CDT 409.87 369.28 100,700
3/22/2019 11 PM CDT 409.85 369.19 100,562
3/23/2019 12 AM CDT 409.86 369.24 100,490
3/23/2019 1 AM CDT 409.86 369.16 100,600
3/23/2019 2 AM CDT 409.86 369.22 100,600
3/23/2019 3 AM CDT 409.86 369.15 100,600
3/23/2019 4 AM CDT 409.85 369.12 100,493
3/23/2019 5 AM CDT 409.85 369.13 100,400
3/23/2019 6 AM CDT 409.86 369.09 100,490
3/23/2019 7 AM CDT 409.87 369.07 100,623
3/23/2019 8 AM CDT 409.86 369.08 100,625
3/23/2019 9 AM CDT 409.87 369.07 100,623
3/23/2019 10 AM CDT 409.89 369.03 100,800
3/23/2019 11 AM CDT 409.89 369.02 100,900
3/23/2019 12 PM CDT 409.85 369.02 100,685
3/23/2019 1 PM CDT 409.80 369.06 100,131
3/23/2019 2 PM CDT 409.79 368.96 99,761
3/23/2019 3 PM CDT 409.81 368.94 99,820
3/23/2019 4 PM CDT 409.76 368.89 99,643
3/23/2019 5 PM CDT 409.78 368.90 99,453
3/23/2019 6 PM CDT 409.73 368.84 99,277
3/23/2019 7 PM CDT 409.75 368.81 99,086
3/23/2019 8 PM CDT 409.76 368.79 99,270
3/23/2019 9 PM CDT 409.75 368.79 99,272
3/23/2019 10 PM CDT 409.77 368.79 99,330
3/23/2019 11 PM CDT 409.77 368.76 99,450
3/24/2019 12 AM CDT 409.76 368.77 99,394

Elevations are in feet above sea level. Discharges are in cubic feet per second and are reported at the end of the hour.